Aeroporto :
LOGIN :

Iscrizione | Disclaimer

   EN    FR    IT 

 










Sommario :    VFR   VFR Marginale   IFR   IFR Intensivo   IFR Molto Intensivo
Visibilità : 
Base nubi : 
>= 8 km
>= 3000ft
5 / 8 km
1000 / 3000 ft
1500m / 5 km
500 / 1000 ft
800 / 1500m
200 / 500 ft
< 800m
< 200 ft
Simboli :   Temporali  Nebbia  Neve Forte  Precipitazioni Forti  Vento > 20 kt
SIGMETs :   Varie  Temporali  Ghiacco  Turbolenza  Onda orograficha  Ceneri Vulcaniche






- Altitudine del aeroporto : 465 ft
- Codice IATA : OMR


LROD - Oradea International

ULTIMO METAR :
  • 231830Z 15006KT CAVOK 12/03 Q1008

METARs OBSOLETI :
  • 231800Z 13007KT CAVOK 12/03 Q1008
  • 231730Z 13008KT CAVOK 12/03 Q1008
  • 231700Z 12008KT CAVOK 12/03 Q1008
  • 231630Z 15009KT CAVOK 13/03 Q1008
  • 231600Z 16011KT CAVOK 12/03 Q1008
  • 231530Z 16011KT CAVOK 12/04 Q1007
  • 231500Z 16012KT CAVOK 12/04 Q1008
  • 231430Z 16011KT CAVOK 12/03 Q1008
  • 231400Z 16012KT CAVOK 12/04 Q1008

TAF TAF LROD
Valido dal 23 a 18 ore il 24 a 03 ore UTC


231700Z 2318/2403 14012KT CAVOK



MetMap, La meteo Aeronautica in un colpo d'occhio ! - Copyright ORBIFLY Dicembre 2007 - Disclaimer

ORBIFLY MET'MAP TEAM :

Programmazione e sviluppo : Alexandra Zaïnal
Concezione : Baudouin d'Aumeries
Supporto tecnico e logistico : Manuel Goepfert
Aiuto : Marc-Olivier Méhu
Aiuto per la traduzione : Arnaldo La Scala




FONTI E CREDITI :

   NOAA